Autryville, NC

9:28 AM EST on February 08, 2016 (GMT -0500)
Lakewood High School | | Change Station
CLOSE
Current Station
Personal Weather Station
Location: Salemburg, NC
Elevation: 180 ft
Nearby Weather Stations

Elev 180 ft 34.99 °N, 78.50 °W | Updated 31 seconds ago

Clear
Clear
41.1 °F
Feels Like 41 °F
N
0.0
Wind Variable Wind from WSW
Gusts 0.0 mph

Today
High -- | Low -- °F
--% Chance of Precip.
Yesterday
High -- | Low -- °F
Precip. -- in
Pressure 29.87 in
Visibility 10.0 miles
Clouds Clear
Windchill 41 °F
Dew Point 33 °F
Humidity 72%
Rainfall 0.00 in
Snow Depth Not available.
7:07 AM 5:49 PM
Waning Crescent, 0% visible
METAR KCTZ 081415Z AUTO 00000KT 10SM CLR 05/00 A2987 RMK AO2 T00451002
Pressure 29.87 in
Visibility 10.0 miles
Clouds Clear
Windchill 41 °F
Dew Point 33 °F
Humidity 72%
Rainfall 0.00 in
Snow Depth Not available.
7:07 AM 5:49 PM
Waning Crescent, 0% visible
METAR KCTZ 081415Z AUTO 00000KT 10SM CLR 05/00 A2987 RMK AO2 T00451002

10-Day Weather Forecast

Almanac

Astronomy

Feb. 08, 2016 Rise Set
Actual Time
Civil Twilight
Nautical Twilight
Astronomical Twilight
Moon
Length of Visible Light
Length of Day
Tomorrow will be .
, % of the Moon is Illuminated

Today's Extremes

State Highs State Lows

Community

WunderPhotos

Upload Photos

1,891,437 photos uploaded!

WunderBlog® & News

Nearby

Air Quality

  Air Quality AQ Index Pollutant
Not available.

Snow Depth

Station Depth Elevation

Earthquake Activity

City Distance Mag. Time & Date
Minimum magnitude displayed is 2.5.

Coastal Water Temperatures

Place Temperature

Stations

Nearby Weather Stations

Station Location Temp. Windchill Dew Point Humidity Wind Precip. Elev Updated Type
                   

Watches & Warnings

There are currently no watches in effect.